»·PEaware :: N5205X KOSH-KOSH

N5205X :: KOSH-KOSH

FLIGHT INFORMATION

Flight Status: Arrived
Operator: Privately registered:
United States
More flights under this callsign
Pilot: Martin B. (29991)
Aircraft: CIRRUS SR-22
(SR22)
More flights by this aircraft type
Origin: KOSH Wittman Regl
United States
Destination: KOSH Wittman Regl
United States
More flights between these airports :: More routes between these airports
Route: null
File this flight plan on PilotEdge
Remarks:
Altitude:
(Current/Filed)
null
Speed:
(Current/Filed)
0kts
Departed: 23-Jul-20 08:33 AM
Arrived: 23-Jul-20 09:48 AM
Distance/Time
Traveled:
1nm/1:14
Distance/Time
To Go:
Arrived

Flight Plot

Page will automatically refresh every two minutes.

Flight plan parsing failed; only flown route is shown


Map Options




Map Legend


Flown Route
Filed Route
Departure Airport
Arrival Airport
Navaid (VOR, NDB)
Fix

Horizontal Profiles

Position Reports

Time Latitude Longitude Heading Altitude Ground
Speed
23-Jul-20 08:32 44.763762 -89.670221 255 1280ft 0kts
23-Jul-20 08:33 44.768191 -89.672311 18 1381ft 70kts
23-Jul-20 08:39 44.777933 -89.702999 208 3110ft 102kts
23-Jul-20 08:40 44.747133 -89.726637 208 3504ft 162kts
23-Jul-20 08:41 44.705276 -89.758840 209 3500ft 177kts
23-Jul-20 08:42 44.662018 -89.792516 208 3499ft 178kts
23-Jul-20 08:43 44.616332 -89.816298 183 3499ft 178kts
23-Jul-20 08:44 44.567138 -89.809821 169 3499ft 178kts
23-Jul-20 08:45 44.519545 -89.790846 159 3499ft 178kts
23-Jul-20 08:46 44.475180 -89.759931 151 3499ft 178kts
23-Jul-20 08:47 44.431569 -89.727186 151 3499ft 178kts
23-Jul-20 08:48 44.387813 -89.694289 151 3499ft 178kts
23-Jul-20 08:49 44.351184 -89.649606 126 3500ft 178kts
23-Jul-20 08:50 44.321844 -89.593793 126 3500ft 178kts
23-Jul-20 08:51 44.312715 -89.577681 136 3493ft 179kts
23-Jul-20 08:52 44.282774 -89.547220 144 3494ft 157kts
23-Jul-20 08:53 44.251775 -89.516832 145 3498ft 123kts
23-Jul-20 08:54 44.224953 -89.490564 144 3499ft 115kts
23-Jul-20 08:55 44.198692 -89.464786 144 3499ft 115kts
23-Jul-20 08:56 44.172471 -89.439076 144 3500ft 115kts
23-Jul-20 08:57 44.146186 -89.413423 144 3499ft 115kts
23-Jul-20 08:58 44.119959 -89.387752 144 3499ft 115kts
23-Jul-20 08:59 44.093720 -89.362009 144 3499ft 115kts
23-Jul-20 09:00 44.067516 -89.336397 145 3499ft 115kts
23-Jul-20 09:01 44.042138 -89.311868 145 3094ft 103kts
23-Jul-20 09:02 44.018952 -89.289528 146 2591ft 101kts
23-Jul-20 09:03 43.996468 -89.267911 146 2086ft 97kts
23-Jul-20 09:03 43.978335 -89.250194 145 1806ft 98kts
23-Jul-20 09:05 43.953653 -89.226139 145 1801ft 96kts
23-Jul-20 09:06 43.931627 -89.204596 145 1799ft 95kts
23-Jul-20 09:07 43.910031 -89.183712 146 1799ft 93kts
23-Jul-20 09:07 43.891631 -89.168114 153 1799ft 92kts
23-Jul-20 09:09 43.866654 -89.145955 129 1799ft 92kts
23-Jul-20 09:09 43.859739 -89.118735 89 1800ft 92kts
23-Jul-20 09:11 43.860730 -89.077007 86 1884ft 99kts
23-Jul-20 09:11 43.861784 -89.036628 85 2587ft 144kts
23-Jul-20 09:13 43.838558 -89.030267 264 3595ft 157kts
23-Jul-20 09:13 43.837369 -89.066538 215 3181ft 90kts
23-Jul-20 09:15 43.831635 -89.040181 173 2243ft 76kts
23-Jul-20 09:15 43.818217 -89.053879 161 1772ft 83kts
23-Jul-20 09:17 43.806389 -89.062007 209 2086ft 54kts
23-Jul-20 09:17 43.788660 -89.068183 179 2333ft 86kts
23-Jul-20 09:18 43.764869 -89.055189 126 2186ft 84kts
23-Jul-20 09:19 43.770774 -89.029967 50 2814ft 99kts
23-Jul-20 09:20 43.784365 -88.995660 68 3492ft 95kts
23-Jul-20 09:22 43.809511 -88.985681 341 3056ft 87kts
23-Jul-20 09:22 43.825043 -89.002390 305 2642ft 83kts
23-Jul-20 09:24 43.818371 -89.037623 236 2034ft 93kts
23-Jul-20 09:24 43.807039 -89.062910 232 1719ft 91kts
23-Jul-20 09:26 43.779664 -89.069467 168 1796ft 94kts
23-Jul-20 09:26 43.759370 -89.061861 141 1795ft 90kts
23-Jul-20 09:27 43.767530 -89.034769 34 1800ft 93kts
23-Jul-20 09:28 43.783978 -89.007546 60 1800ft 93kts
23-Jul-20 09:29 43.796079 -88.975978 63 1800ft 93kts
23-Jul-20 09:30 43.807578 -88.943988 63 1800ft 93kts
23-Jul-20 09:31 43.818863 -88.912444 63 1799ft 90kts
23-Jul-20 09:32 43.830506 -88.879731 63 1800ft 97kts
23-Jul-20 09:33 43.842034 -88.847290 63 1801ft 97kts
23-Jul-20 09:34 43.857458 -88.815275 56 1777ft 101kts
23-Jul-20 09:35 43.874674 -88.785190 48 1800ft 102kts
23-Jul-20 09:36 43.891657 -88.757724 48 1799ft 91kts
23-Jul-20 09:37 43.908842 -88.731322 44 1800ft 94kts
23-Jul-20 09:38 43.928190 -88.707884 38 1799ft 91kts
23-Jul-20 09:39 43.948205 -88.686250 40 1799ft 91kts
23-Jul-20 09:40 43.965218 -88.659121 58 1767ft 87kts
23-Jul-20 09:41 43.979449 -88.630066 63 1708ft 91kts
23-Jul-20 09:42 43.992557 -88.600709 56 1825ft 90kts
23-Jul-20 09:43 43.999272 -88.568489 83 1595ft 89kts
23-Jul-20 09:44 43.994402 -88.571168 343 1369ft 80kts
23-Jul-20 09:45 44.006218 -88.549406 127 1481ft 88kts
23-Jul-20 09:46 43.991547 -88.564303 276 785ft 66kts
23-Jul-20 09:47 43.992443 -88.568877 269 791ft 2kts
23-Jul-20 09:48 43.992496 -88.572869 269 798ft 11kts
23-Jul-20 09:49 43.991601 -88.576052 163 807ft 6kts
23-Jul-20 09:50 43.991012 -88.572917 115 800ft 7kts
23-Jul-20 09:51 43.990781 -88.572281 75 800ft 0kts
23-Jul-20 09:52 43.990781 -88.572281 75 800ft 0kts
23-Jul-20 09:53 43.990781 -88.572281 75 800ft 0kts
23-Jul-20 09:54 43.990781 -88.572281 75 800ft 0kts

Navigation Log

Ident Type
Flight plan parsing failed, navigation log unavailable